createdAt,value
2022-09-04T00:01:39.487Z,101149.44
2022-09-04T00:04:26.371Z,101142.53
2022-09-04T00:07:06.284Z,101152.31
2022-09-04T00:09:43.207Z,101157.16
2022-09-04T00:12:13.801Z,101156.28
2022-09-04T00:14:46.952Z,101156.94
2022-09-04T00:17:21.176Z,101165.31
2022-09-04T00:19:54.137Z,101166.09
2022-09-04T00:22:30.401Z,101169.53
2022-09-04T00:25:08.099Z,101165.31
2022-09-04T00:27:44.676Z,101165.50
2022-09-04T00:30:17.547Z,101167.38
2022-09-04T00:32:52.918Z,101165.13
2022-09-04T00:35:25.528Z,101166.63
2022-09-04T00:38:01.548Z,101166.75
2022-09-04T00:40:35.702Z,101165.97
2022-09-04T00:43:42.479Z,101164.22
2022-09-04T00:46:48.246Z,101165.13
2022-09-04T00:49:47.097Z,101167.19
2022-09-04T00:52:29.600Z,101161.84
2022-09-04T00:55:18.513Z,101165.47
2022-09-04T00:58:32.526Z,101169.97
2022-09-04T01:01:01.384Z,101172.88
2022-09-04T01:03:55.203Z,101179.13
2022-09-04T01:06:36.681Z,101175.69
2022-09-04T01:09:38.974Z,101176.50
2022-09-04T01:12:20.404Z,101174.88
2022-09-04T01:14:56.077Z,101184.75
2022-09-04T01:17:34.908Z,101183.03
2022-09-04T01:20:13.394Z,101171.56
2022-09-04T01:22:56.238Z,101179.69
2022-09-04T01:25:33.988Z,101177.22
2022-09-04T01:28:09.013Z,101176.34
2022-09-04T01:30:47.145Z,101186.06
2022-09-04T01:33:23.964Z,101189.63
2022-09-04T01:36:02.111Z,101187.97
2022-09-04T01:38:38.763Z,101185.44
2022-09-04T01:41:17.215Z,101194.47
2022-09-04T01:43:46.625Z,101195.44
2022-09-04T01:46:27.368Z,101185.88
2022-09-04T01:49:03.844Z,101188.56
2022-09-04T01:51:41.484Z,101195.75
2022-09-04T01:54:25.064Z,101196.72
2022-09-04T01:57:14.686Z,101203.06
2022-09-04T01:59:55.380Z,101204.94
2022-09-04T02:02:30.073Z,101204.03
2022-09-04T02:05:08.515Z,101199.88
2022-09-04T02:07:45.527Z,101201.78
2022-09-04T02:10:28.588Z,101199.13
2022-09-04T02:13:07.395Z,101203.66
2022-09-04T02:15:43.177Z,101205.47
2022-09-04T02:18:20.010Z,101207.59
2022-09-04T02:20:57.072Z,101218.06
2022-09-04T02:23:35.277Z,101220.78
2022-09-04T02:26:13.821Z,101221.78
2022-09-04T02:28:54.243Z,101218.25
2022-09-04T02:31:31.357Z,101218.19
2022-09-04T02:34:06.233Z,101217.34
2022-09-04T02:36:42.446Z,101225.41
2022-09-04T02:39:23.143Z,101217.50
2022-09-04T02:42:03.792Z,101226.34
2022-09-04T02:44:43.345Z,101219.50
2022-09-04T02:47:24.689Z,101214.28
2022-09-04T02:50:00.484Z,101213.63
2022-09-04T02:52:51.676Z,101212.75
2022-09-04T02:55:31.958Z,101204.00
2022-09-04T02:58:14.708Z,101209.38
2022-09-04T03:00:55.316Z,101212.97
2022-09-04T03:03:33.070Z,101221.81
2022-09-04T03:06:11.266Z,101224.44
2022-09-04T03:08:48.368Z,101228.03
2022-09-04T03:11:24.415Z,101224.63
2022-09-04T03:14:00.404Z,101225.72
2022-09-04T03:16:36.192Z,101222.09
2022-09-04T03:19:16.544Z,101222.16
2022-09-04T03:21:57.043Z,101225.72
2022-09-04T03:24:29.657Z,101221.38
2022-09-04T03:27:05.011Z,101230.38
2022-09-04T03:29:39.425Z,101231.34
2022-09-04T03:32:17.226Z,101239.34
2022-09-04T03:34:56.339Z,101237.59
2022-09-04T03:37:39.172Z,101238.59
2022-09-04T03:40:20.748Z,101237.69
2022-09-04T03:43:02.111Z,101243.81
2022-09-04T03:45:37.942Z,101243.06
2022-09-04T03:48:20.445Z,101250.16
2022-09-04T03:50:58.842Z,101246.78
2022-09-04T03:53:33.729Z,101248.66
2022-09-04T03:56:27.144Z,101258.53
2022-09-04T03:59:04.858Z,101264.97
2022-09-04T04:01:48.186Z,101254.34
2022-09-04T04:04:35.256Z,101258.84
2022-09-04T04:07:14.439Z,101259.88
2022-09-04T04:09:55.794Z,101269.56
2022-09-04T04:12:42.608Z,101261.63
2022-09-04T04:15:28.867Z,101271.38
2022-09-04T04:18:14.088Z,101267.25
2022-09-04T04:20:46.085Z,101271.69
2022-09-04T04:23:58.964Z,101273.44
2022-09-04T04:26:45.194Z,101276.97
2022-09-04T04:29:44.860Z,101275.19
2022-09-04T04:32:33.129Z,101286.69
2022-09-04T04:35:11.620Z,101287.59
2022-09-04T04:37:53.715Z,101293.84
2022-09-04T04:40:33.946Z,101300.88
2022-09-04T04:43:14.010Z,101309.81
2022-09-04T04:45:51.054Z,101308.09
2022-09-04T04:48:52.057Z,101312.38
2022-09-04T04:51:40.550Z,101308.81
2022-09-04T04:54:24.603Z,101312.44
2022-09-04T04:56:58.669Z,101313.31
2022-09-04T04:59:36.057Z,101315.06
2022-09-04T05:02:14.370Z,101311.50
2022-09-04T05:04:51.136Z,101319.47
2022-09-04T05:07:34.574Z,101321.13
2022-09-04T05:10:11.088Z,101314.88
2022-09-04T05:12:55.908Z,101323.84
2022-09-04T05:15:35.952Z,101321.88
2022-09-04T05:18:14.868Z,101328.19
2022-09-04T05:20:48.980Z,101332.56
2022-09-04T05:23:28.880Z,101331.47
2022-09-04T05:26:07.969Z,101339.53
2022-09-04T05:28:52.441Z,101350.22
2022-09-04T05:31:33.545Z,101346.38
2022-09-04T05:34:11.531Z,101350.72
2022-09-04T05:36:51.444Z,101345.50
2022-09-04T05:39:28.616Z,101349.59
2022-09-04T05:42:38.298Z,101354.06
2022-09-04T05:45:20.808Z,101359.34
2022-09-04T05:48:02.929Z,101349.53
2022-09-04T05:51:00.766Z,101348.47
2022-09-04T05:53:57.997Z,101354.47
2022-09-04T05:56:46.430Z,101357.75
2022-09-04T05:59:35.589Z,101364.91
2022-09-04T06:02:28.481Z,101370.00
2022-09-04T06:05:28.835Z,101379.66
2022-09-04T06:08:07.835Z,101373.19
2022-09-04T06:10:49.153Z,101374.78
2022-09-04T06:13:39.453Z,101382.59
2022-09-04T06:16:22.734Z,101389.47
2022-09-04T06:19:04.677Z,101388.38
2022-09-04T06:22:05.658Z,101394.66
2022-09-04T06:24:57.375Z,101396.97
2022-09-04T06:27:43.587Z,101403.88
2022-09-04T06:30:12.881Z,101393.03
2022-09-04T06:33:07.100Z,101387.66
2022-09-04T06:35:58.659Z,101393.59
2022-09-04T06:38:43.468Z,101396.19
2022-09-04T06:41:35.583Z,101393.31
2022-09-04T06:44:13.881Z,101397.78
2022-09-04T06:46:50.609Z,101399.34
2022-09-04T06:49:25.255Z,101405.31
2022-09-04T06:52:07.558Z,101400.69
2022-09-04T06:54:48.432Z,101394.19
2022-09-04T06:57:38.708Z,101403.81
2022-09-04T07:00:09.025Z,101399.09
2022-09-04T07:03:05.263Z,101405.84
2022-09-04T07:05:43.541Z,101408.38
2022-09-04T07:08:17.731Z,101401.06
2022-09-04T07:10:53.808Z,101410.69
2022-09-04T07:13:35.953Z,101406.88
2022-09-04T07:16:17.939Z,101403.06
2022-09-04T07:19:13.830Z,101403.50
2022-09-04T07:21:52.186Z,101403.28
2022-09-04T07:24:47.238Z,101403.13
2022-09-04T07:27:25.730Z,101398.47
2022-09-04T07:29:59.777Z,101400.84
2022-09-04T07:32:37.759Z,101405.88
2022-09-04T07:35:13.187Z,101402.13
2022-09-04T07:37:48.160Z,101403.81
2022-09-04T07:40:18.310Z,101403.59
2022-09-04T07:42:52.088Z,101413.00
2022-09-04T07:45:32.353Z,101419.16
2022-09-04T07:48:12.260Z,101418.88
2022-09-04T07:51:04.822Z,101417.72
2022-09-04T07:54:00.443Z,101429.03
2022-09-04T07:56:45.729Z,101421.72
2022-09-04T07:59:38.930Z,101430.22
2022-09-04T08:02:27.690Z,101437.78
2022-09-04T08:05:16.772Z,101429.66
2022-09-04T08:08:24.856Z,101450.88
2022-09-04T08:11:04.642Z,101448.66
2022-09-04T08:14:04.999Z,101457.41
2022-09-04T08:16:41.876Z,101463.81
2022-09-04T08:19:24.282Z,101461.78
2022-09-04T08:21:54.847Z,101465.63
2022-09-04T08:24:49.611Z,101465.75
2022-09-04T08:27:35.438Z,101464.34
2022-09-04T08:30:14.247Z,101460.94
2022-09-04T08:33:24.457Z,101455.03
2022-09-04T08:36:01.399Z,101456.44
2022-09-04T08:38:46.705Z,101455.59
2022-09-04T08:42:01.174Z,101457.88
2022-09-04T08:45:20.249Z,101459.38
2022-09-04T08:48:30.780Z,101458.78
2022-09-04T08:51:18.089Z,101473.31
2022-09-04T08:54:11.679Z,101464.94
2022-09-04T08:56:47.236Z,101464.59
2022-09-04T08:59:57.123Z,101468.91
2022-09-04T09:03:23.045Z,101470.38
2022-09-04T09:06:37.149Z,101475.00
2022-09-04T09:09:32.727Z,101474.81
2022-09-04T09:12:41.220Z,101470.16
2022-09-04T09:15:40.723Z,101474.34
2022-09-04T09:18:24.526Z,101478.47
2022-09-04T09:20:58.016Z,101477.13
2022-09-04T09:23:41.533Z,101477.88
2022-09-04T09:26:28.235Z,101467.38
2022-09-04T09:29:28.231Z,101466.06
2022-09-04T09:32:35.322Z,101462.13
2022-09-04T09:35:37.059Z,101463.59
2022-09-04T09:38:39.787Z,101453.81
2022-09-04T09:41:41.900Z,101456.63
2022-09-04T09:44:44.743Z,101456.09
2022-09-04T09:47:52.937Z,101451.28
2022-09-04T09:51:00.695Z,101445.88
2022-09-04T09:53:56.424Z,101436.53
2022-09-04T09:56:52.705Z,101438.94
2022-09-04T09:59:54.794Z,101438.50
2022-09-04T10:02:59.757Z,101433.19
2022-09-04T10:05:51.634Z,101426.22
2022-09-04T10:08:43.727Z,101428.44
2022-09-04T10:11:30.582Z,101437.00
2022-09-04T10:14:25.111Z,101429.50
2022-09-04T10:17:25.070Z,101436.53
2022-09-04T10:20:37.547Z,101434.22
2022-09-04T10:23:30.340Z,101437.53
2022-09-04T10:26:17.034Z,101427.97
2022-09-04T10:29:29.621Z,101433.72
2022-09-04T10:32:15.982Z,101434.78
2022-09-04T10:35:10.879Z,101424.53
2022-09-04T10:38:02.690Z,101431.97
2022-09-04T10:40:47.084Z,101430.69
2022-09-04T10:43:40.015Z,101434.94
2022-09-04T10:46:13.949Z,101427.31
2022-09-04T10:49:18.951Z,101437.41
2022-09-04T10:52:25.201Z,101442.59
2022-09-04T10:55:22.384Z,101436.69
2022-09-04T10:58:26.542Z,101431.28
2022-09-04T11:01:19.927Z,101422.72
2022-09-04T11:04:04.404Z,101426.09
2022-09-04T11:07:28.729Z,101420.22
2022-09-04T11:10:29.455Z,101421.56
2022-09-04T11:13:21.192Z,101422.53
2022-09-04T11:16:00.755Z,101414.78
2022-09-04T11:19:08.883Z,101417.13
2022-09-04T11:22:12.574Z,101416.47
2022-09-04T11:25:19.048Z,101414.03
2022-09-04T11:28:07.682Z,101419.88
2022-09-04T11:30:53.840Z,101417.28
2022-09-04T11:34:08.005Z,101411.59
2022-09-04T11:36:52.691Z,101408.31
2022-09-04T11:40:06.404Z,101414.69
2022-09-04T11:42:53.789Z,101421.81
2022-09-04T11:45:51.354Z,101412.16
2022-09-04T11:48:43.058Z,101406.41
2022-09-04T11:52:06.106Z,101406.88
2022-09-04T11:55:10.863Z,101405.03
2022-09-04T11:57:53.538Z,101412.00
2022-09-04T12:00:22.198Z,101417.56
2022-09-04T12:03:22.433Z,101408.97
2022-09-04T12:06:06.638Z,101408.13
2022-09-04T12:08:52.053Z,101406.38
2022-09-04T12:11:48.104Z,101401.53
2022-09-04T12:14:42.955Z,101393.72
2022-09-04T12:17:40.990Z,101400.88
2022-09-04T12:20:47.986Z,101391.59
2022-09-04T12:23:34.206Z,101388.50
2022-09-04T12:26:24.492Z,101391.31
2022-09-04T12:29:19.382Z,101384.84
2022-09-04T12:32:07.303Z,101392.38
2022-09-04T12:35:00.528Z,101395.19
2022-09-04T12:37:58.051Z,101394.38
2022-09-04T12:40:35.561Z,101383.16
2022-09-04T12:43:30.972Z,101393.34
2022-09-04T12:46:14.277Z,101397.34
2022-09-04T12:48:52.506Z,101392.16
2022-09-04T12:51:25.204Z,101399.72
2022-09-04T12:54:10.146Z,101389.28
2022-09-04T12:56:49.603Z,101394.69
2022-09-04T12:59:50.186Z,101387.59
2022-09-04T13:02:28.801Z,101392.25
2022-09-04T13:05:07.649Z,101390.63
2022-09-04T13:07:50.780Z,101391.31
2022-09-04T13:10:26.957Z,101392.81
2022-09-04T13:13:06.269Z,101392.59
2022-09-04T13:15:47.975Z,101396.50
2022-09-04T13:18:27.032Z,101398.97
2022-09-04T13:21:06.462Z,101400.28
2022-09-04T13:24:03.373Z,101396.94
2022-09-04T13:26:46.228Z,101399.66
2022-09-04T13:29:26.561Z,101397.91
2022-09-04T13:32:13.453Z,101406.69
2022-09-04T13:34:59.250Z,101403.44
2022-09-04T13:37:38.915Z,101403.19
2022-09-04T13:40:22.490Z,101392.75
2022-09-04T13:43:22.890Z,101395.09
2022-09-04T13:45:55.595Z,101402.16
2022-09-04T13:48:34.158Z,101395.75
2022-09-04T13:51:13.280Z,101398.53
2022-09-04T13:53:58.196Z,101394.97
2022-09-04T13:56:32.294Z,101395.81
2022-09-04T14:01:45.837Z,101397.09
2022-09-04T14:04:26.362Z,101398.34
2022-09-04T14:07:06.131Z,101396.53
2022-09-04T14:09:40.093Z,101397.13
2022-09-04T14:12:20.803Z,101397.63
2022-09-04T14:15:15.770Z,101401.56
2022-09-04T14:17:50.635Z,101396.03
2022-09-04T14:20:24.113Z,101396.56
2022-09-04T14:23:03.616Z,101394.94
2022-09-04T14:25:40.850Z,101392.50
2022-09-04T14:28:20.549Z,101393.59
2022-09-04T14:31:01.324Z,101388.94
2022-09-04T14:33:40.053Z,101385.47
2022-09-04T14:36:22.639Z,101391.53
2022-09-04T14:39:21.144Z,101395.63
2022-09-04T14:42:01.097Z,101397.38
2022-09-04T14:44:43.199Z,101400.13
2022-09-04T14:47:26.091Z,101395.97
2022-09-04T14:49:56.668Z,101397.00
2022-09-04T14:52:35.483Z,101404.19
2022-09-04T14:55:14.069Z,101400.13
2022-09-04T14:57:48.216Z,101396.09
2022-09-04T15:00:18.943Z,101396.72
2022-09-04T15:02:52.062Z,101407.47
2022-09-04T15:05:24.306Z,101400.13
2022-09-04T15:07:59.831Z,101402.16
2022-09-04T15:10:53.732Z,101405.16
2022-09-04T15:13:49.475Z,101402.91
2022-09-04T15:16:22.762Z,101401.50
2022-09-04T15:18:59.177Z,101395.66
2022-09-04T15:21:36.608Z,101396.06
2022-09-04T15:24:16.266Z,101398.84
2022-09-04T15:26:48.396Z,101395.41
2022-09-04T15:29:22.843Z,101402.22
2022-09-04T15:32:00.600Z,101402.09
2022-09-04T15:34:30.836Z,101403.94
2022-09-04T15:37:17.880Z,101405.56
2022-09-04T15:39:55.642Z,101398.16
2022-09-04T15:42:45.295Z,101402.88
2022-09-04T15:45:23.483Z,101392.38
2022-09-04T15:48:11.205Z,101396.13
2022-09-04T15:50:51.892Z,101399.66
2022-09-04T15:53:27.564Z,101395.09
2022-09-04T15:56:10.344Z,101391.63
2022-09-04T15:58:53.227Z,101392.59
2022-09-04T16:01:26.795Z,101388.22
2022-09-04T16:04:07.183Z,101386.59
2022-09-04T16:06:47.808Z,101392.78
2022-09-04T16:09:24.123Z,101389.34
2022-09-04T16:12:05.003Z,101385.59
2022-09-04T16:14:42.453Z,101383.38
2022-09-04T16:17:20.112Z,101384.28
2022-09-04T16:19:57.691Z,101391.19
2022-09-04T16:22:38.449Z,101381.75
2022-09-04T16:25:11.087Z,101395.53
2022-09-04T16:27:48.362Z,101394.00
2022-09-04T16:30:32.961Z,101399.00
2022-09-04T16:33:02.286Z,101389.59
2022-09-04T16:35:36.274Z,101392.72
2022-09-04T16:38:10.375Z,101396.69
2022-09-04T16:40:44.002Z,101393.81
2022-09-04T16:43:24.078Z,101397.00
2022-09-04T16:46:06.413Z,101396.09
2022-09-04T16:48:44.318Z,101399.59
2022-09-04T16:51:39.160Z,101396.38
2022-09-04T16:54:17.995Z,101396.78
2022-09-04T16:56:50.163Z,101404.41
2022-09-04T16:59:30.737Z,101399.03
2022-09-04T17:02:02.262Z,101409.72
2022-09-04T17:04:43.079Z,101409.66
2022-09-04T17:07:18.456Z,101412.00
2022-09-04T17:09:55.867Z,101408.84
2022-09-04T17:12:33.487Z,101410.06
2022-09-04T17:15:16.288Z,101405.78
2022-09-04T17:17:47.239Z,101407.03
2022-09-04T17:20:51.657Z,101414.78
2022-09-04T17:28:58.086Z,101416.44
2022-09-04T17:29:13.593Z,101422.22
2022-09-04T17:32:00.514Z,101421.66
2022-09-04T17:40:33.941Z,101422.28
2022-09-04T17:40:54.949Z,101426.75
2022-09-04T17:41:38.209Z,101427.69
2022-09-04T17:44:02.360Z,101434.06
2022-09-04T17:46:36.629Z,101433.22
2022-09-04T17:49:17.512Z,101431.34
2022-09-04T17:51:51.367Z,101440.94
2022-09-04T17:54:29.890Z,101443.59
2022-09-04T17:57:02.703Z,101453.09
2022-09-04T17:59:36.545Z,101452.81
2022-09-04T18:02:14.127Z,101455.25
2022-09-04T18:04:50.739Z,101451.97
2022-09-04T18:08:06.682Z,101452.72
2022-09-04T18:10:23.439Z,101457.94
2022-09-04T18:13:00.626Z,101457.94
2022-09-04T18:15:34.707Z,101457.94
2022-09-04T18:18:12.720Z,101457.44
2022-09-04T18:20:51.668Z,101465.84
2022-09-04T18:23:48.124Z,101468.34
2022-09-04T18:26:33.926Z,101481.16
2022-09-04T18:31:49.566Z,101472.75
2022-09-04T18:37:08.767Z,101483.22
2022-09-04T18:37:25.324Z,101471.91
2022-09-04T18:38:19.677Z,101474.22
2022-09-04T18:44:39.104Z,101482.59
2022-09-04T18:50:20.219Z,101482.94
2022-09-04T18:50:28.883Z,101486.78
2022-09-04T18:50:50.301Z,101486.63
2022-09-04T18:52:17.041Z,101489.94
2022-09-04T18:54:50.988Z,101489.44
2022-09-04T18:57:28.799Z,101494.13
2022-09-04T19:00:08.177Z,101492.56
2022-09-04T19:02:53.806Z,101493.69
2022-09-04T19:05:24.866Z,101498.56
2022-09-04T19:07:57.534Z,101502.25
2022-09-04T19:10:29.854Z,101505.19
2022-09-04T19:13:05.328Z,101506.41
2022-09-04T19:15:53.769Z,101507.63
2022-09-04T19:18:27.463Z,101504.09
2022-09-04T19:21:18.295Z,101510.63
2022-09-04T19:23:50.401Z,101505.06
2022-09-04T19:26:27.203Z,101508.56
2022-09-04T19:28:58.880Z,101512.13
2022-09-04T19:31:34.517Z,101509.91
2022-09-04T19:34:12.113Z,101517.16
2022-09-04T19:36:46.273Z,101517.38
2022-09-04T19:46:00.423Z,101517.47
2022-09-04T19:46:07.993Z,101521.47
2022-09-04T19:46:11.435Z,101528.34
2022-09-04T19:48:20.796Z,101523.09
2022-09-04T19:53:31.248Z,101523.50
2022-09-04T19:53:52.100Z,101526.50
2022-09-04T19:56:29.259Z,101521.31
2022-09-04T19:59:05.661Z,101527.88
2022-09-04T20:01:43.358Z,101524.47
2022-09-04T20:04:20.843Z,101519.47
2022-09-04T20:06:51.865Z,101525.72
2022-09-04T20:09:29.044Z,101539.53
2022-09-04T20:12:02.935Z,101537.84
2022-09-04T20:14:40.718Z,101543.38
2022-09-04T20:17:22.900Z,101544.44
2022-09-04T20:19:57.173Z,101540.28
2022-09-04T20:22:31.124Z,101535.56
2022-09-04T20:25:21.000Z,101545.47
2022-09-04T20:27:55.153Z,101546.31
2022-09-04T20:30:26.711Z,101545.47
2022-09-04T20:33:01.913Z,101540.47
2022-09-04T20:35:36.172Z,101546.78
2022-09-04T20:38:23.034Z,101552.13
2022-09-04T20:40:57.383Z,101544.59
2022-09-04T20:43:32.168Z,101547.19
2022-09-04T20:52:41.755Z,101544.34
2022-09-04T20:52:50.301Z,101550.75
2022-09-04T20:52:58.594Z,101545.44
2022-09-04T20:55:11.539Z,101554.25
2022-09-04T21:03:11.377Z,101552.66
2022-09-04T21:03:21.496Z,101556.38
2022-09-04T21:04:04.326Z,101556.47
2022-09-04T21:06:38.317Z,101556.75
2022-09-04T21:09:19.168Z,101562.78
2022-09-04T21:11:51.449Z,101556.91
2022-09-04T21:14:27.023Z,101560.38
2022-09-04T21:17:43.199Z,101573.78
2022-09-04T21:20:33.800Z,101576.69
2022-09-04T21:23:26.561Z,101587.78
2022-09-04T21:26:08.758Z,101574.31
2022-09-04T21:29:07.284Z,101579.91
2022-09-04T21:32:01.553Z,101588.00
2022-09-04T21:34:52.167Z,101585.59
2022-09-04T21:37:29.861Z,101583.94
2022-09-04T21:40:50.531Z,101585.25
2022-09-04T21:43:41.090Z,101587.94
2022-09-04T21:46:28.929Z,101581.03
2022-09-04T21:49:26.822Z,101591.00
2022-09-04T21:52:12.617Z,101591.28
2022-09-04T21:58:21.214Z,101592.38
2022-09-04T22:02:25.956Z,101598.00
2022-09-04T22:02:47.379Z,101612.22
2022-09-04T22:04:12.042Z,101608.84
2022-09-04T22:10:06.662Z,101601.00
2022-09-04T22:13:33.699Z,101608.41
2022-09-04T22:13:45.995Z,101608.81
2022-09-04T22:16:05.887Z,101608.75
2022-09-04T22:19:04.745Z,101608.03
2022-09-04T22:22:03.361Z,101606.47
2022-09-04T22:24:54.394Z,101601.16
2022-09-04T22:28:08.957Z,101611.84
2022-09-04T22:30:56.210Z,101605.00
2022-09-04T22:34:15.191Z,101600.88
2022-09-04T22:37:29.854Z,101602.69
2022-09-04T22:40:16.523Z,101611.69
2022-09-04T22:42:49.943Z,101607.41
2022-09-04T22:46:11.675Z,101609.47
2022-09-04T22:49:15.538Z,101607.88
2022-09-04T22:52:15.458Z,101616.00
2022-09-04T22:54:58.725Z,101609.16
2022-09-04T22:57:44.963Z,101607.41
2022-09-04T23:00:17.875Z,101600.63
2022-09-04T23:03:08.855Z,101610.44
2022-09-04T23:06:08.874Z,101604.28
2022-09-04T23:13:44.685Z,101604.38
2022-09-04T23:13:58.373Z,101609.13
2022-09-04T23:15:08.088Z,101611.91
2022-09-04T23:18:12.884Z,101611.91
2022-09-04T23:26:32.946Z,101611.91
2022-09-04T23:26:41.908Z,101613.94
2022-09-04T23:27:34.107Z,101612.19
2022-09-04T23:30:11.801Z,101606.47
2022-09-04T23:33:28.370Z,101609.94
2022-09-04T23:36:04.135Z,101616.38
2022-09-04T23:38:59.050Z,101618.31
2022-09-04T23:41:52.636Z,101610.22
2022-09-04T23:44:47.538Z,101610.53
2022-09-04T23:47:48.025Z,101611.59
2022-09-04T23:50:31.096Z,101611.84
2022-09-04T23:53:10.172Z,101615.34
2022-09-04T23:55:51.167Z,101615.47
2022-09-04T23:58:51.783Z,101614.53
